KSTE

Details ICAO KSTE (STE)
Name Stevens Point Muni
Region United States
Timezone America/Chicago (UTC-6.0)
Plans Departing 1
Arriving 1
Stats Elevation 1,110 ft / 338 m (AMSL)
Location 44.544964° -89.530076°
Runways 2
Magnetic Variation 2.824° W
Sunrise 2017-12-11 13:26:19 UTC / 2017-12-11 07:26:19 Local
Sunset 2017-12-11 22:19:34 UTC / 2017-12-11 16:19:34 Local
Advertisement - Login to hide

Runways

ID Width Length Bearing (true) Bearing (mag) Surface Threshold Offset Overrun Length
03 120 ft / 37 m 6,028 ft / 1,837 m 29.55° 32.37° Asphalt 0 ft / 0 m 0 ft / 0 m
12 75 ft / 23 m 3,630 ft / 1,106 m 119.75° 122.57° Asphalt 0 ft / 0 m 0 ft / 0 m
21 120 ft / 37 m 6,028 ft / 1,837 m 209.56° 212.38° Asphalt 0 ft / 0 m 0 ft / 0 m
30 75 ft / 23 m 3,630 ft / 1,106 m 299.76° 302.58° Asphalt 0 ft / 0 m 0 ft / 0 m

Map

Weather


0- 5 10 15 20 25 30 35+ Temperature / ° C

Clouds and Precipitation
Forecast for 2017-12-11 12:00 UTC. Updated 23 minutes ago

Ground ~20,000 ft ~40,000 ft Winds

METAR

KSTE 111115Z AUTO 17006KT 3SM UP OVC017 M07/M07 A2986 RMK AO2 T10721075

TAF

Not found

Frequencies

Recorded 119.27 MHz AWOS 3
Unicom 122.70 MHz CTAF/UNICOM
Warning: Do not use this data for real-world aviation or navigation. No guarantee of current accuracy is given.